Fairbanks, AK

4:34 AM AKST on March 06, 2015 (GMT -0900)
Fairbanks International | Change Station
CLOSE
Current Station
Airport
Location: Fairbanks,
Elevation: 433 ft
Nearby Weather Stations
Active Advisory: Winter Weather Advisory

Elev 433 ft 64.80 °N, 147.88 °W | Updated 41 minutes ago

Mostly Cloudy
Mostly Cloudy
25 °F
Feels Like 21 °F
N
4
Wind Variable Wind from WSW

Today
High -- | Low -- °F
--% Chance of Precip.
Yesterday
High -- | Low -- °F
Precip. -- in
7:42 AM 6:23 PM
Waxing Gibbous, 99% visible
Pressure 30.11 in
Visibility 10.0 miles
Clouds Few 2000 ft
Scattered Clouds 4000 ft
Mostly Cloudy 12000 ft
Windchill 21 °F
Dew Point 19 °F
Humidity 78%
Rainfall 0.00 in
Snow Depth Not available.
UV 0 out of 12
Pollen Not available.
Air Quality Not available.
Flu Activity Not available.
METAR PAFA 061253Z 24003KT 10SM FEW020 SCT040 BKN120 M04/M07 A3008 RMK AO2 SNE07 SLP194 T10391072 $

More Conditions Fewer Conditions

Pressure 30.11 in
Visibility 10.0 miles
Clouds Few 2000 ft
Scattered Clouds 4000 ft
Mostly Cloudy 12000 ft
Windchill 21 °F
Dew Point 19 °F
Humidity 78%
Rainfall 0.00 in
Snow Depth Not available.
UV 0 out of 12
Pollen Not available.
Air Quality Not available.
Flu Activity Not available.
METAR PAFA 061253Z 24003KT 10SM FEW020 SCT040 BKN120 M04/M07 A3008 RMK AO2 SNE07 SLP194 T10391072 $

More Conditions Fewer Conditions

10-Day Weather Forecast

Almanac

Astronomy

Mar. 06, 2015 Rise Set
Actual Time
Civil Twilight
Nautical Twilight
Astronomical Twilight
Moon
Length of Visible Light
Length of Day
Tomorrow will be .
, % of the Moon is Illuminated

Today's Extremes

State Highs State Lows

Community

WunderPhotos

Upload Photos

1,803,266 photos uploaded!

WunderBlogs® & News

Nearby

Air Quality

  Air Quality AQ Index Pollutant
Not available.

Snow Depth

Station Depth Elevation

Earthquake Activity

City Distance Mag. Time & Date
Minimum magnitude displayed is 2.5.

Coastal Water Temperatures

Place Temperature

Nearby Weather Stations

Winter Weather Advisory
Statement as of 3:55 AM AKST on March 06, 2015

... Winter Weather Advisory in effect from midnight tonight to
midnight akst Saturday night...

The National Weather Service in Fairbanks has issued a Winter
Weather Advisory for snow... which is in effect from midnight
tonight to midnight akst Saturday night.

* Snow... 4 to 8 inches... heaviest over the hills.

* Timing... snow will increase late this evening and continue
through midnight Saturday night.

* Impacts... visibility may be greatly reduced. Travel and outdoor
activities will be difficult.

Precautionary/preparedness actions...

A Winter Weather Advisory means that one or more winter weather
hazards are expected to cause travel difficulties.